Time;durP1;ratioP1;P1;durP2;ratioP2;P2;SDS_P1;SDS_P2;PMS_P1;PMS_P2;Temp;Humidity;BMP_temperature;BMP_pressure;BME280_temperature;BME280_humidity;BME280_pressure;Samples;Min_cycle;Max_cycle;Signal;HPM_P1;HPM_P2
2022/01/29 00:00:23;;;;;;;27.25;8.55;;;;;;;;;;5086803;28;20462;-63
2022/01/29 00:02:50;;;;;;;32.75;8.60;;;;;;;;;;5084287;28;20050;-63
2022/01/29 00:05:16;;;;;;;30.08;8.30;;;;;;;;;;5076316;28;20094;-63
2022/01/29 00:07:42;;;;;;;43.13;9.70;;;;;;;;;;5084792;28;20036;-63
2022/01/29 00:10:10;;;;;;;28.83;8.05;;;;;;;;;;5076354;28;20123;-63
2022/01/29 00:12:36;;;;;;;32.72;8.23;;;;;;;;;;5074419;28;20041;-63
2022/01/29 00:15:02;;;;;;;35.78;8.05;;;;;;;;;;5079788;28;20043;-63
2022/01/29 00:17:29;;;;;;;24.88;7.85;;;;;;;;;;5086581;28;20071;-63
2022/01/29 00:19:55;;;;;;;28.58;7.80;;;;;;;;;;5079406;28;20082;-63
2022/01/29 00:22:21;;;;;;;31.50;8.30;;;;;;;;;;5074691;28;20057;-63
2022/01/29 00:24:47;;;;;;;28.13;8.35;;;;;;;;;;5073707;28;20044;-63
2022/01/29 00:27:13;;;;;;;27.42;7.32;;;;;;;;;;5079286;28;20036;-63
2022/01/29 00:29:41;;;;;;;28.15;7.55;;;;;;;;;;5082097;28;20120;-63
2022/01/29 00:32:08;;;;;;;28.63;7.85;;;;;;;;;;5078667;28;20037;-63
2022/01/29 00:34:34;;;;;;;26.50;8.27;;;;;;;;;;5075899;28;20449;-63
2022/01/29 00:37:01;;;;;;;37.67;7.78;;;;;;;;;;5078646;28;20083;-63
2022/01/29 00:39:27;;;;;;;21.77;7.68;;;;;;;;;;5080574;28;20478;-63
2022/01/29 00:41:53;;;;;;;23.67;7.78;;;;;;;;;;5079316;28;20043;-63
2022/01/29 00:44:19;;;;;;;23.85;7.72;;;;;;;;;;5075665;28;20049;-63
2022/01/29 00:46:45;;;;;;;24.70;7.47;;;;;;;;;;5086198;28;20039;-63
2022/01/29 00:49:12;;;;;;;23.75;8.02;;;;;;;;;;5086150;28;20083;-63
2022/01/29 00:51:39;;;;;;;31.05;8.73;;;;;;;;;;5086984;28;20039;-63
2022/01/29 00:54:05;;;;;;;25.02;7.57;;;;;;;;;;5087894;28;20388;-63
2022/01/29 00:56:31;;;;;;;33.28;9.15;;;;;;;;;;5089880;28;20115;-63
2022/01/29 00:58:57;;;;;;;27.33;7.10;;;;;;;;;;5088058;28;20424;-63
2022/01/29 01:01:24;;;;;;;26.17;7.07;;;;;;;;;;5093126;28;20109;-63
2022/01/29 01:03:50;;;;;;;31.63;7.60;;;;;;;;;;5085590;28;20037;-63
2022/01/29 01:06:16;;;;;;;24.75;7.47;;;;;;;;;;5087155;28;20387;-63
2022/01/29 01:08:42;;;;;;;34.90;7.72;;;;;;;;;;5069422;28;20070;-63
2022/01/29 01:11:08;;;;;;;32.42;8.55;;;;;;;;;;5094787;28;20032;-63
2022/01/29 01:13:35;;;;;;;30.85;7.95;;;;;;;;;;5070774;28;20496;-63
2022/01/29 01:16:02;;;;;;;31.92;7.90;;;;;;;;;;5092003;28;20058;-63
2022/01/29 01:18:28;;;;;;;24.90;8.15;;;;;;;;;;5065765;28;20086;-63
2022/01/29 01:20:54;;;;;;;28.15;8.13;;;;;;;;;;5068128;28;20079;-63
2022/01/29 01:23:21;;;;;;;31.27;8.00;;;;;;;;;;5066025;28;20041;-63
2022/01/29 01:25:47;;;;;;;30.65;9.38;;;;;;;;;;5085545;28;20040;-63
2022/01/29 01:28:13;;;;;;;33.78;12.10;;;;;;;;;;5081213;28;20045;-63
2022/01/29 01:30:39;;;;;;;23.25;8.40;;;;;;;;;;5095713;28;20061;-63
2022/01/29 01:33:06;;;;;;;29.02;9.25;;;;;;;;;;5091644;28;20043;-64
2022/01/29 01:35:39;;;;;;;35.78;10.25;;;;;;;;;;5091635;28;20036;-62
2022/01/29 01:38:36;;;;;;;29.83;9.52;;;;;;;;;;5090224;28;20399;-63
2022/01/29 01:40:59;;;;;;;35.95;11.02;;;;;;;;;;5069264;28;20063;-63
2022/01/29 01:43:25;;;;;;;30.10;9.18;;;;;;;;;;5073920;28;20064;-63
2022/01/29 01:45:51;;;;;;;29.80;11.18;;;;;;;;;;5057236;28;20123;-63
2022/01/29 01:48:17;;;;;;;35.78;11.45;;;;;;;;;;5055407;28;20052;-63
2022/01/29 01:50:43;;;;;;;31.48;11.25;;;;;;;;;;5038982;28;20067;-63
2022/01/29 01:53:10;;;;;;;37.40;10.63;;;;;;;;;;5068684;28;20040;-63
2022/01/29 01:55:37;;;;;;;35.10;11.10;;;;;;;;;;5054906;28;20048;-63
2022/01/29 01:58:03;;;;;;;43.17;12.73;;;;;;;;;;5068838;28;20036;-63
2022/01/29 02:00:29;;;;;;;31.65;10.75;;;;;;;;;;5056058;28;20455;-63
2022/01/29 02:02:56;;;;;;;45.60;13.43;;;;;;;;;;5061112;28;20482;-63
2022/01/29 02:05:22;;;;;;;39.30;11.68;;;;;;;;;;5053680;28;20467;-63
2022/01/29 02:07:48;;;;;;;49.97;11.65;;;;;;;;;;5051426;28;20044;-63
2022/01/29 02:10:16;;;;;;;39.03;12.88;;;;;;;;;;5072224;28;20047;-63
2022/01/29 02:12:52;;;;;;;42.05;13.30;;;;;;;;;;5071694;28;20040;-63
2022/01/29 02:15:20;;;;;;;40.75;13.07;;;;;;;;;;5061359;28;20737;-63
2022/01/29 02:17:46;;;;;;;35.90;11.07;;;;;;;;;;5069400;28;20471;-63
2022/01/29 02:20:14;;;;;;;43.45;12.57;;;;;;;;;;5062196;28;20491;-63
2022/01/29 02:22:42;;;;;;;42.20;13.23;;;;;;;;;;5054605;28;20033;-63
2022/01/29 02:25:28;;;;;;;37.67;13.07;;;;;;;;;;5067637;28;20036;-63
2022/01/29 02:27:54;;;;;;;42.20;11.90;;;;;;;;;;5037904;28;20048;-63
2022/01/29 02:30:20;;;;;;;38.25;12.43;;;;;;;;;;5056776;28;20087;-63
2022/01/29 02:32:46;;;;;;;32.13;12.32;;;;;;;;;;5063843;28;20037;-63
2022/01/29 02:35:12;;;;;;;28.48;11.27;;;;;;;;;;5063967;28;20062;-63
2022/01/29 02:37:39;;;;;;;38.78;12.40;;;;;;;;;;5062662;28;20041;-63
2022/01/29 02:40:06;;;;;;;32.83;10.77;;;;;;;;;;5071905;28;20049;-63
2022/01/29 02:42:32;;;;;;;37.63;12.80;;;;;;;;;;5071266;28;20471;-63
2022/01/29 02:44:58;;;;;;;42.70;13.35;;;;;;;;;;5097312;27;20036;-63
2022/01/29 02:47:29;;;;;;;38.40;11.75;;;;;;;;;;5080538;28;20044;-63
2022/01/29 02:49:56;;;;;;;38.85;13.30;;;;;;;;;;5081040;28;20125;-63
2022/01/29 02:52:22;;;;;;;40.45;13.05;;;;;;;;;;5077849;28;20072;-63
2022/01/29 02:54:48;;;;;;;38.25;12.88;;;;;;;;;;5081562;28;20036;-63
2022/01/29 02:57:15;;;;;;;38.10;12.45;;;;;;;;;;5078478;28;20109;-63
2022/01/29 02:59:41;;;;;;;33.45;11.85;;;;;;;;;;5084756;28;20058;-63
2022/01/29 03:02:07;;;;;;;36.28;12.18;;;;;;;;;;5065581;28;20112;-63
2022/01/29 03:04:33;;;;;;;28.60;12.20;;;;;;;;;;5066301;28;20048;-63
2022/01/29 03:06:59;;;;;;;36.17;11.57;;;;;;;;;;5086738;28;20028;-63
2022/01/29 03:09:26;;;;;;;38.90;14.00;;;;;;;;;;5083138;28;20093;-63
2022/01/29 03:11:52;;;;;;;45.08;12.70;;;;;;;;;;5080281;28;20063;-63
2022/01/29 03:14:18;;;;;;;32.05;11.93;;;;;;;;;;5082009;28;20037;-63
2022/01/29 03:16:45;;;;;;;42.20;12.38;;;;;;;;;;5083698;28;20048;-63
2022/01/29 03:19:11;;;;;;;40.90;13.93;;;;;;;;;;5070124;28;20120;-63
2022/01/29 03:21:37;;;;;;;41.38;13.23;;;;;;;;;;5086375;28;20119;-63
2022/01/29 03:24:03;;;;;;;43.13;12.30;;;;;;;;;;5078508;28;20811;-63
2022/01/29 03:26:29;;;;;;;41.58;13.30;;;;;;;;;;5078352;28;20138;-63
2022/01/29 03:28:55;;;;;;;33.42;12.63;;;;;;;;;;5091222;28;20051;-63
2022/01/29 03:31:26;;;;;;;33.38;12.98;;;;;;;;;;5089767;28;20036;-63
2022/01/29 03:33:52;;;;;;;37.58;15.07;;;;;;;;;;5065407;28;20404;-63
2022/01/29 03:36:18;;;;;;;36.88;13.40;;;;;;;;;;5088754;28;20047;-63
2022/01/29 03:38:44;;;;;;;46.72;15.25;;;;;;;;;;5087353;28;20045;-64
2022/01/29 03:41:13;;;;;;;37.65;14.90;;;;;;;;;;5070954;28;20048;-63
2022/01/29 03:43:45;;;;;;;36.10;14.02;;;;;;;;;;5065224;28;20101;-63
2022/01/29 03:46:12;;;;;;;42.58;13.68;;;;;;;;;;5074843;28;20048;-63
2022/01/29 03:48:38;;;;;;;41.70;14.88;;;;;;;;;;5074683;28;20036;-63
2022/01/29 03:51:04;;;;;;;41.95;16.65;;;;;;;;;;5079793;28;20043;-63
2022/01/29 03:53:30;;;;;;;37.17;14.43;;;;;;;;;;5083253;28;20047;-63
2022/01/29 03:55:56;;;;;;;37.20;15.05;;;;;;;;;;5074558;28;20068;-63
2022/01/29 03:58:22;;;;;;;34.38;14.55;;;;;;;;;;5081064;28;20097;-62
2022/01/29 04:00:49;;;;;;;39.17;15.15;;;;;;;;;;5075790;28;20041;-63
2022/01/29 04:03:15;;;;;;;39.78;15.30;;;;;;;;;;5081399;28;20041;-63
2022/01/29 04:05:41;;;;;;;30.42;14.57;;;;;;;;;;5087460;28;20064;-63
2022/01/29 04:08:14;;;;;;;36.47;14.82;;;;;;;;;;5082224;28;20452;-63
2022/01/29 04:10:40;;;;;;;29.45;14.10;;;;;;;;;;5082804;28;20050;-63
2022/01/29 04:13:09;;;;;;;37.05;14.23;;;;;;;;;;5085145;28;20539;-63
2022/01/29 04:15:35;;;;;;;33.38;14.23;;;;;;;;;;5061463;28;20032;-63
2022/01/29 04:18:02;;;;;;;33.65;13.82;;;;;;;;;;5067620;28;20048;-63
2022/01/29 04:20:28;;;;;;;36.47;14.88;;;;;;;;;;5087626;28;20044;-63
2022/01/29 04:22:54;;;;;;;34.85;14.20;;;;;;;;;;5085869;28;20041;-63
2022/01/29 04:25:20;;;;;;;37.17;15.07;;;;;;;;;;5077225;28;20511;-63
2022/01/29 04:27:48;;;;;;;36.20;15.32;;;;;;;;;;5076417;28;20418;-63
2022/01/29 04:30:27;;;;;;;32.92;14.55;;;;;;;;;;5058770;28;20067;-63
2022/01/29 04:32:58;;;;;;;42.03;16.52;;;;;;;;;;5085317;28;20109;-63
2022/01/29 04:35:24;;;;;;;38.22;15.18;;;;;;;;;;5076062;28;20048;-63
2022/01/29 04:37:51;;;;;;;42.17;17.35;;;;;;;;;;5073364;28;20033;-63
2022/01/29 04:40:17;;;;;;;32.92;14.73;;;;;;;;;;5073671;28;20032;-63
2022/01/29 04:42:43;;;;;;;37.05;15.05;;;;;;;;;;5076561;28;20045;-63
2022/01/29 04:45:10;;;;;;;41.13;15.30;;;;;;;;;;5062778;28;20052;-63
2022/01/29 04:47:36;;;;;;;33.08;15.70;;;;;;;;;;5077107;28;20041;-63
2022/01/29 04:50:02;;;;;;;40.45;15.77;;;;;;;;;;5078205;28;20416;-63
2022/01/29 04:52:28;;;;;;;34.58;15.43;;;;;;;;;;5070751;28;20044;-63
2022/01/29 04:54:54;;;;;;;43.22;17.40;;;;;;;;;;5081359;28;20055;-63
2022/01/29 04:57:20;;;;;;;43.55;15.70;;;;;;;;;;5059303;28;20119;-63
2022/01/29 04:59:46;;;;;;;39.40;15.63;;;;;;;;;;5076166;28;20380;-63
2022/01/29 05:02:12;;;;;;;41.03;16.35;;;;;;;;;;5055327;28;20106;-63
2022/01/29 05:04:38;;;;;;;45.72;15.77;;;;;;;;;;5079510;28;20032;-63
2022/01/29 05:07:05;;;;;;;36.10;15.48;;;;;;;;;;5078151;28;20098;-63
2022/01/29 05:09:31;;;;;;;41.47;16.58;;;;;;;;;;5078329;28;20056;-63
2022/01/29 05:12:00;;;;;;;33.97;14.63;;;;;;;;;;5071066;28;20495;-63
2022/01/29 05:27:49;;;;;;;35.35;15.05;;;;;;;;;;5079590;28;20388;-63
2022/01/29 05:30:15;;;;;;;36.00;15.52;;;;;;;;;;5066992;28;20040;-63
2022/01/29 05:32:41;;;;;;;30.95;14.85;;;;;;;;;;5075640;28;20714;-63
2022/01/29 05:35:07;;;;;;;32.38;14.35;;;;;;;;;;5078980;28;20040;-63
2022/01/29 05:37:34;;;;;;;31.73;14.98;;;;;;;;;;5078901;28;20051;-63
2022/01/29 05:40:00;;;;;;;28.27;15.15;;;;;;;;;;5076640;28;20387;-63
2022/01/29 05:42:26;;;;;;;29.73;15.55;;;;;;;;;;5075729;28;20064;-63
2022/01/29 05:44:52;;;;;;;32.42;14.32;;;;;;;;;;5063986;28;20032;-63
2022/01/29 05:47:18;;;;;;;29.88;13.77;;;;;;;;;;5081924;28;20376;-63
2022/01/29 05:49:44;;;;;;;34.70;15.68;;;;;;;;;;5058472;28;20071;-63
2022/01/29 05:52:10;;;;;;;40.47;16.20;;;;;;;;;;5075289;28;20488;-63
2022/01/29 05:54:36;;;;;;;29.45;14.20;;;;;;;;;;5060331;28;20047;-63
2022/01/29 05:57:03;;;;;;;28.77;14.80;;;;;;;;;;5078449;28;20076;-63
2022/01/29 05:59:31;;;;;;;30.25;15.63;;;;;;;;;;5078610;28;20040;-63
2022/01/29 06:01:57;;;;;;;25.02;14.40;;;;;;;;;;5078878;28;20108;-64
2022/01/29 06:04:23;;;;;;;33.85;14.27;;;;;;;;;;5080573;28;20047;-63
2022/01/29 06:06:49;;;;;;;31.25;13.90;;;;;;;;;;5079238;28;20068;-63
2022/01/29 06:09:15;;;;;;;37.15;14.43;;;;;;;;;;5084217;28;20062;-63
2022/01/29 06:11:41;;;;;;;28.60;15.13;;;;;;;;;;5081941;28;20043;-63
2022/01/29 06:14:09;;;;;;;23.05;13.65;;;;;;;;;;5066892;28;20113;-63
2022/01/29 06:16:35;;;;;;;30.00;14.35;;;;;;;;;;5086809;28;20086;-63
2022/01/29 06:19:01;;;;;;;32.42;16.33;;;;;;;;;;5087131;28;20048;-64
2022/01/29 06:21:27;;;;;;;30.15;14.85;;;;;;;;;;5065588;28;20278;-63
2022/01/29 06:23:53;;;;;;;32.88;15.15;;;;;;;;;;5088004;28;20398;-63
2022/01/29 06:26:19;;;;;;;34.58;13.68;;;;;;;;;;5074729;28;20379;-63
2022/01/29 06:28:46;;;;;;;33.20;15.60;;;;;;;;;;5095742;28;20044;-63
2022/01/29 06:31:12;;;;;;;33.05;14.60;;;;;;;;;;5057795;28;20181;-63
2022/01/29 06:33:38;;;;;;;30.60;14.93;;;;;;;;;;5093087;28;20109;-64
2022/01/29 06:36:04;;;;;;;30.20;15.68;;;;;;;;;;5089505;28;20050;-63
2022/01/29 06:38:31;;;;;;;31.30;14.30;;;;;;;;;;5077681;28;20040;-63
2022/01/29 06:40:57;;;;;;;29.25;13.77;;;;;;;;;;5093403;28;20051;-63
2022/01/29 06:43:23;;;;;;;31.73;14.00;;;;;;;;;;5063212;28;20080;-63
2022/01/29 06:45:49;;;;;;;33.15;13.30;;;;;;;;;;5087950;28;20044;-63
2022/01/29 06:48:15;;;;;;;33.95;13.15;;;;;;;;;;5085332;28;20097;-63
2022/01/29 06:50:41;;;;;;;29.10;13.30;;;;;;;;;;5083508;28;20043;-63
2022/01/29 06:53:08;;;;;;;30.17;13.32;;;;;;;;;;5065650;28;20644;-63
2022/01/29 06:55:34;;;;;;;27.50;12.77;;;;;;;;;;5082009;28;20040;-63
2022/01/29 06:58:00;;;;;;;29.67;12.05;;;;;;;;;;5068878;28;20047;-63
2022/01/29 07:00:27;;;;;;;30.73;13.18;;;;;;;;;;5074810;28;20051;-63
2022/01/29 07:02:53;;;;;;;28.30;12.57;;;;;;;;;;5070940;28;20123;-63
2022/01/29 07:05:19;;;;;;;25.63;12.57;;;;;;;;;;5090735;28;20048;-63
2022/01/29 07:07:45;;;;;;;27.92;12.40;;;;;;;;;;5087898;28;20062;-64
2022/01/29 07:10:11;;;;;;;24.27;11.88;;;;;;;;;;5090574;28;20078;-63
2022/01/29 07:12:38;;;;;;;23.25;11.35;;;;;;;;;;5086066;28;20078;-63
2022/01/29 07:15:06;;;;;;;26.92;11.68;;;;;;;;;;5083135;28;20155;-62
2022/01/29 07:17:32;;;;;;;26.75;11.63;;;;;;;;;;5085220;28;20044;-62
2022/01/29 07:19:58;;;;;;;27.50;10.70;;;;;;;;;;5084569;28;20048;-62
2022/01/29 07:22:24;;;;;;;32.92;11.27;;;;;;;;;;5085632;28;20044;-62
2022/01/29 07:24:51;;;;;;;24.20;11.27;;;;;;;;;;5083875;28;20111;-62
2022/01/29 07:27:17;;;;;;;23.17;11.02;;;;;;;;;;5089814;28;20036;-63
2022/01/29 07:29:44;;;;;;;32.05;10.52;;;;;;;;;;5087833;28;20398;-62
2022/01/29 07:32:10;;;;;;;23.77;10.02;;;;;;;;;;5079630;28;20102;-63
2022/01/29 07:34:37;;;;;;;22.23;10.43;;;;;;;;;;5088017;28;20044;-63
2022/01/29 07:37:03;;;;;;;26.05;11.85;;;;;;;;;;5083920;28;20411;-63
2022/01/29 07:39:30;;;;;;;28.20;10.27;;;;;;;;;;5086763;28;20135;-64
2022/01/29 07:41:56;;;;;;;25.63;9.85;;;;;;;;;;5074647;28;20040;-63
2022/01/29 07:44:22;;;;;;;28.10;11.15;;;;;;;;;;5055970;28;20503;-63
2022/01/29 07:46:49;;;;;;;19.88;9.70;;;;;;;;;;5075255;28;20092;-64
2022/01/29 07:49:15;;;;;;;22.77;10.35;;;;;;;;;;5076920;28;20080;-63
2022/01/29 07:51:41;;;;;;;24.95;10.07;;;;;;;;;;5070411;28;20040;-63
2022/01/29 07:54:08;;;;;;;22.48;9.85;;;;;;;;;;5077039;28;20056;-63
2022/01/29 07:56:34;;;;;;;21.25;8.98;;;;;;;;;;5079640;28;20060;-63
2022/01/29 07:59:01;;;;;;;28.80;9.15;;;;;;;;;;5079800;28;20369;-62
2022/01/29 08:01:27;;;;;;;21.83;8.23;;;;;;;;;;5084008;28;20036;-64
2022/01/29 08:03:53;;;;;;;26.63;9.85;;;;;;;;;;5091300;28;20387;-63
2022/01/29 08:06:22;;;;;;;22.90;8.75;;;;;;;;;;5076534;28;20054;-64
2022/01/29 08:08:48;;;;;;;25.52;10.40;;;;;;;;;;5095046;28;20498;-62
2022/01/29 08:11:15;;;;;;;19.95;8.32;;;;;;;;;;5078319;28;20100;-63
2022/01/29 08:13:43;;;;;;;22.73;8.57;;;;;;;;;;5080129;28;20487;-63
2022/01/29 08:16:09;;;;;;;25.48;8.90;;;;;;;;;;5095043;28;20055;-63
2022/01/29 08:18:35;;;;;;;25.48;8.73;;;;;;;;;;5074748;28;20411;-63
2022/01/29 08:21:02;;;;;;;18.48;8.23;;;;;;;;;;5082373;28;20093;-63
2022/01/29 08:23:28;;;;;;;19.48;7.95;;;;;;;;;;5080525;28;20033;-63
2022/01/29 08:25:54;;;;;;;25.25;8.07;;;;;;;;;;5080985;28;20379;-63
2022/01/29 08:28:20;;;;;;;22.75;8.13;;;;;;;;;;5077931;28;20044;-63
2022/01/29 08:30:47;;;;;;;25.00;7.93;;;;;;;;;;5094169;28;20074;-63
2022/01/29 08:33:17;;;;;;;15.98;6.70;;;;;;;;;;5070889;28;20032;-63
2022/01/29 08:35:44;;;;;;;19.05;6.93;;;;;;;;;;5076105;28;20056;-65
2022/01/29 08:38:10;;;;;;;20.73;6.75;;;;;;;;;;5072469;28;20048;-63
2022/01/29 08:40:36;;;;;;;20.98;6.60;;;;;;;;;;5082611;28;20096;-63
2022/01/29 08:43:02;;;;;;;18.50;6.32;;;;;;;;;;5080310;28;20375;-64
2022/01/29 08:45:28;;;;;;;23.05;6.78;;;;;;;;;;5083834;28;20055;-63
2022/01/29 08:47:54;;;;;;;18.92;6.28;;;;;;;;;;5071820;28;20056;-63
2022/01/29 08:50:21;;;;;;;18.33;6.35;;;;;;;;;;5075278;28;20048;-63
2022/01/29 08:52:47;;;;;;;23.58;7.28;;;;;;;;;;5082557;28;20040;-63
2022/01/29 08:55:13;;;;;;;18.02;6.20;;;;;;;;;;5076314;28;20067;-63
2022/01/29 08:57:40;;;;;;;19.80;6.47;;;;;;;;;;5078479;28;20036;-63
2022/01/29 09:00:08;;;;;;;18.85;6.13;;;;;;;;;;5078848;28;20105;-62
2022/01/29 09:02:34;;;;;;;22.30;6.82;;;;;;;;;;5091071;28;20060;-63
2022/01/29 09:05:00;;;;;;;17.02;5.95;;;;;;;;;;5084687;28;20126;-64
2022/01/29 09:07:27;;;;;;;14.50;5.70;;;;;;;;;;5080429;28;20039;-63
2022/01/29 09:09:55;;;;;;;19.80;6.05;;;;;;;;;;5088376;28;20044;-62
2022/01/29 09:12:21;;;;;;;44.72;8.23;;;;;;;;;;5084680;28;20045;-63
2022/01/29 09:14:48;;;;;;;15.65;5.63;;;;;;;;;;5099830;27;20052;-63
2022/01/29 09:17:14;;;;;;;19.30;5.63;;;;;;;;;;5087740;28;20122;-62
2022/01/29 09:19:40;;;;;;;15.48;5.13;;;;;;;;;;5089200;28;20042;-63
2022/01/29 09:22:06;;;;;;;15.63;5.20;;;;;;;;;;5076714;28;20044;-63
2022/01/29 09:24:32;;;;;;;16.63;5.03;;;;;;;;;;5084224;28;20707;-63
2022/01/29 09:26:59;;;;;;;16.73;4.82;;;;;;;;;;5098053;28;20143;-63
2022/01/29 09:29:25;;;;;;;13.95;4.30;;;;;;;;;;5088104;28;20048;-63
2022/01/29 09:31:51;;;;;;;22.45;6.18;;;;;;;;;;5086572;28;20071;-63
2022/01/29 09:34:17;;;;;;;12.20;3.35;;;;;;;;;;5079553;28;20036;-63
2022/01/29 09:36:44;;;;;;;11.98;4.05;;;;;;;;;;5084142;28;20043;-63
2022/01/29 09:39:10;;;;;;;14.50;3.88;;;;;;;;;;5088086;28;20060;-62
2022/01/29 09:41:38;;;;;;;16.02;3.80;;;;;;;;;;5080047;28;20193;-62
2022/01/29 09:44:04;;;;;;;18.80;4.22;;;;;;;;;;5083499;28;20372;-63
2022/01/29 09:46:31;;;;;;;17.95;4.60;;;;;;;;;;5083927;28;20040;-63
2022/01/29 09:48:57;;;;;;;11.80;3.67;;;;;;;;;;5075602;28;20048;-63
2022/01/29 09:51:24;;;;;;;17.80;4.28;;;;;;;;;;5085772;28;20055;-63
2022/01/29 09:53:50;;;;;;;15.10;3.78;;;;;;;;;;5084383;28;20110;-63
2022/01/29 09:56:16;;;;;;;14.77;3.70;;;;;;;;;;5082556;28;20047;-63
2022/01/29 09:58:43;;;;;;;17.02;3.22;;;;;;;;;;5086023;28;20051;-63
2022/01/29 10:01:10;;;;;;;14.50;2.80;;;;;;;;;;5086486;28;20044;-63
2022/01/29 10:03:36;;;;;;;10.73;2.70;;;;;;;;;;5086296;28;20091;-63
2022/01/29 10:06:03;;;;;;;12.38;3.25;;;;;;;;;;5079699;28;20119;-64
2022/01/29 10:08:29;;;;;;;11.48;2.88;;;;;;;;;;5084397;28;20103;-63
2022/01/29 10:10:58;;;;;;;11.90;3.75;;;;;;;;;;5083540;28;20036;-63
2022/01/29 10:13:29;;;;;;;16.98;3.58;;;;;;;;;;5081699;28;20054;-64
2022/01/29 10:16:08;;;;;;;17.23;3.08;;;;;;;;;;5080781;28;20364;-64
2022/01/29 10:18:35;;;;;;;11.30;3.00;;;;;;;;;;5079671;28;20455;-63
2022/01/29 10:21:08;;;;;;;16.65;3.67;;;;;;;;;;5088857;28;20438;-63
2022/01/29 10:23:34;;;;;;;15.43;3.33;;;;;;;;;;5078344;28;20044;-63
2022/01/29 10:26:01;;;;;;;16.05;3.53;;;;;;;;;;5081283;28;20084;-63
2022/01/29 10:28:28;;;;;;;13.73;2.47;;;;;;;;;;5079533;28;20196;-63
2022/01/29 10:30:55;;;;;;;13.98;2.40;;;;;;;;;;5079219;28;20212;-63
2022/01/29 10:33:28;;;;;;;12.95;2.53;;;;;;;;;;5082951;28;20118;-63
2022/01/29 10:35:55;;;;;;;20.60;3.53;;;;;;;;;;5074245;28;20051;-63
2022/01/29 10:38:22;;;;;;;16.52;3.60;;;;;;;;;;5077720;28;20487;-63
2022/01/29 10:41:03;;;;;;;12.27;2.10;;;;;;;;;;5079937;28;20060;-63
2022/01/29 10:43:29;;;;;;;16.08;2.67;;;;;;;;;;5080261;28;20052;-63
2022/01/29 10:45:56;;;;;;;18.13;3.33;;;;;;;;;;5080781;28;20052;-70
2022/01/29 10:48:22;;;;;;;16.13;3.10;;;;;;;;;;5074255;28;20056;-62
2022/01/29 10:51:08;;;;;;;14.88;3.20;;;;;;;;;;5078827;28;20076;-62
2022/01/29 10:53:34;;;;;;;18.98;2.60;;;;;;;;;;5084906;28;20379;-62
2022/01/29 10:56:01;;;;;;;13.57;3.03;;;;;;;;;;5082493;28;20036;-62
2022/01/29 10:58:27;;;;;;;12.57;2.97;;;;;;;;;;5087013;28;20032;-63
2022/01/29 11:01:13;;;;;;;14.00;2.75;;;;;;;;;;5083798;28;20048;-62
2022/01/29 11:03:39;;;;;;;13.63;3.10;;;;;;;;;;5081775;28;20044;-62
2022/01/29 11:06:08;;;;;;;11.13;2.22;;;;;;;;;;5078955;28;20048;-62
2022/01/29 11:08:35;;;;;;;9.02;2.00;;;;;;;;;;5068496;28;20048;-63
2022/01/29 11:11:01;;;;;;;12.35;2.97;;;;;;;;;;5080502;28;20044;-62
2022/01/29 11:13:28;;;;;;;11.02;2.80;;;;;;;;;;5083565;28;20045;-62
2022/01/29 11:15:55;;;;;;;22.13;2.65;;;;;;;;;;5085911;28;20093;-63
2022/01/29 11:18:21;;;;;;;16.98;3.00;;;;;;;;;;5082846;28;20410;-62
2022/01/29 11:20:48;;;;;;;14.85;2.78;;;;;;;;;;5082712;28;20048;-63
2022/01/29 11:23:14;;;;;;;19.35;3.38;;;;;;;;;;5082069;28;20047;-63
2022/01/29 11:25:41;;;;;;;15.77;2.83;;;;;;;;;;5083913;28;20491;-63
2022/01/29 11:28:14;;;;;;;13.02;3.17;;;;;;;;;;5079070;28;20040;-63
2022/01/29 11:30:47;;;;;;;9.82;2.58;;;;;;;;;;5078934;28;20043;-63
2022/01/29 11:33:13;;;;;;;13.48;2.58;;;;;;;;;;5085585;28;20184;-62
2022/01/29 11:35:50;;;;;;;13.35;2.50;;;;;;;;;;5094092;28;20496;-62
2022/01/29 11:38:27;;;;;;;14.10;2.60;;;;;;;;;;5084689;28;20167;-62
2022/01/29 11:40:58;;;;;;;14.60;2.33;;;;;;;;;;5076074;28;20051;-61
2022/01/29 11:43:26;;;;;;;15.30;2.72;;;;;;;;;;5085402;28;20163;-62
2022/01/29 11:46:05;;;;;;;13.40;2.80;;;;;;;;;;5075967;28;20044;-62
2022/01/29 11:48:34;;;;;;;15.45;2.45;;;;;;;;;;5080871;28;20040;-62
2022/01/29 11:51:02;;;;;;;9.57;2.22;;;;;;;;;;5076687;28;20059;-63
2022/01/29 11:53:37;;;;;;;19.23;2.58;;;;;;;;;;5086998;28;20044;-62
2022/01/29 11:56:03;;;;;;;16.52;3.83;;;;;;;;;;5089007;28;20046;-62
2022/01/29 11:58:29;;;;;;;10.45;3.58;;;;;;;;;;5088194;28;20032;-62
2022/01/29 12:00:57;;;;;;;13.10;2.20;;;;;;;;;;5085157;28;20188;-62
2022/01/29 12:03:33;;;;;;;15.30;2.90;;;;;;;;;;5079180;28;20487;-63
2022/01/29 12:06:06;;;;;;;15.30;3.05;;;;;;;;;;5100748;27;20059;-63
2022/01/29 12:08:38;;;;;;;18.30;3.20;;;;;;;;;;5084154;28;20380;-62
2022/01/29 12:11:11;;;;;;;14.32;3.05;;;;;;;;;;5086192;28;20411;-63
2022/01/29 12:13:37;;;;;;;14.15;3.55;;;;;;;;;;5101618;27;20040;-63
2022/01/29 12:16:05;;;;;;;16.55;2.75;;;;;;;;;;5089195;28;20040;-62
2022/01/29 12:18:34;;;;;;;15.90;2.58;;;;;;;;;;5084159;28;20044;-63
2022/01/29 12:21:01;;;;;;;16.67;4.10;;;;;;;;;;5087125;28;20050;-63
2022/01/29 12:23:27;;;;;;;18.00;2.78;;;;;;;;;;5086718;28;20040;-62
2022/01/29 12:25:54;;;;;;;14.55;3.50;;;;;;;;;;5083925;28;20067;-62
2022/01/29 12:28:21;;;;;;;16.48;3.42;;;;;;;;;;5083067;28;20125;-63
2022/01/29 12:30:47;;;;;;;20.10;3.15;;;;;;;;;;5081723;28;20044;-69
2022/01/29 12:33:16;;;;;;;19.98;3.33;;;;;;;;;;5065907;28;20040;-63
2022/01/29 12:35:51;;;;;;;22.17;3.75;;;;;;;;;;5086142;28;20120;-63
2022/01/29 12:38:19;;;;;;;19.80;3.33;;;;;;;;;;5077573;28;20045;-63
2022/01/29 12:40:59;;;;;;;22.38;3.25;;;;;;;;;;5080216;28;20487;-62
2022/01/29 12:43:34;;;;;;;18.35;3.03;;;;;;;;;;5075742;28;20055;-62
2022/01/29 12:46:11;;;;;;;19.17;3.15;;;;;;;;;;5083896;28;20043;-62
2022/01/29 12:48:38;;;;;;;24.85;5.05;;;;;;;;;;5085164;28;20039;-62
2022/01/29 12:51:06;;;;;;;16.17;3.35;;;;;;;;;;5086020;28;20113;-62
2022/01/29 12:53:32;;;;;;;18.50;3.45;;;;;;;;;;5084714;28;20036;-62
2022/01/29 12:55:59;;;;;;;13.50;2.88;;;;;;;;;;5091465;28;20446;-63
2022/01/29 12:58:27;;;;;;;16.67;3.05;;;;;;;;;;5089009;28;20446;-62
2022/01/29 13:01:01;;;;;;;15.15;3.22;;;;;;;;;;5093860;28;20044;-62
2022/01/29 13:03:28;;;;;;;17.75;2.85;;;;;;;;;;5079306;28;20044;-62
2022/01/29 13:05:54;;;;;;;15.65;2.45;;;;;;;;;;5084419;28;20044;-63
2022/01/29 13:08:25;;;;;;;15.13;2.47;;;;;;;;;;5064923;28;20063;-62
2022/01/29 13:10:51;;;;;;;14.82;2.83;;;;;;;;;;5072956;28;20051;-62
2022/01/29 13:13:27;;;;;;;17.30;2.97;;;;;;;;;;5079486;28;20124;-62
2022/01/29 13:15:53;;;;;;;15.05;2.63;;;;;;;;;;5067164;28;20045;-62
2022/01/29 13:18:19;;;;;;;21.58;4.57;;;;;;;;;;5086318;28;20119;-62
2022/01/29 13:20:45;;;;;;;15.05;3.45;;;;;;;;;;5080113;28;20363;-62
2022/01/29 13:23:12;;;;;;;16.63;2.38;;;;;;;;;;5085873;28;20046;-62
2022/01/29 13:25:40;;;;;;;10.35;2.00;;;;;;;;;;5083636;28;20033;-62
2022/01/29 13:28:12;;;;;;;11.98;2.92;;;;;;;;;;5084477;28;20518;-62
2022/01/29 13:30:38;;;;;;;17.13;3.85;;;;;;;;;;5082459;28;20043;-62
2022/01/29 13:33:07;;;;;;;13.57;3.30;;;;;;;;;;5097269;27;20188;-61
2022/01/29 13:35:34;;;;;;;16.67;3.13;;;;;;;;;;5086861;28;20087;-62
2022/01/29 13:38:08;;;;;;;23.83;3.75;;;;;;;;;;5085415;28;20154;-62
2022/01/29 13:40:36;;;;;;;16.30;3.70;;;;;;;;;;5079390;28;20047;-64
2022/01/29 13:43:06;;;;;;;14.35;2.50;;;;;;;;;;5076234;28;20418;-61
2022/01/29 13:45:34;;;;;;;13.95;2.40;;;;;;;;;;5086101;28;20090;-65
2022/01/29 13:48:03;;;;;;;15.60;2.35;;;;;;;;;;5085910;28;20091;-63
2022/01/29 13:50:43;;;;;;;14.57;2.92;;;;;;;;;;5078911;28;20036;-63
2022/01/29 13:53:18;;;;;;;10.95;2.08;;;;;;;;;;5059317;28;20045;-63
2022/01/29 13:55:56;;;;;;;16.73;2.75;;;;;;;;;;5078520;28;20052;-63
2022/01/29 13:58:24;;;;;;;10.68;2.13;;;;;;;;;;5086291;28;20193;-63
2022/01/29 14:00:59;;;;;;;12.52;2.40;;;;;;;;;;5081675;28;20055;-63
2022/01/29 14:03:42;;;;;;;15.43;3.63;;;;;;;;;;5084118;28;20538;-63
2022/01/29 14:06:32;;;;;;;13.95;2.35;;;;;;;;;;5081017;28;20036;-63
2022/01/29 14:09:14;;;;;;;17.30;2.85;;;;;;;;;;5085360;28;20044;-62
2022/01/29 14:11:55;;;;;;;11.23;3.03;;;;;;;;;;5078289;28;20562;-63
2022/01/29 14:14:22;;;;;;;15.18;2.80;;;;;;;;;;5081972;28;20062;-63
2022/01/29 14:16:48;;;;;;;19.65;3.90;;;;;;;;;;5083685;28;20109;-63
2022/01/29 14:19:17;;;;;;;26.00;4.90;;;;;;;;;;5079378;28;20127;-63
2022/01/29 14:21:43;;;;;;;13.93;2.83;;;;;;;;;;5086416;28;20446;-63
2022/01/29 14:24:10;;;;;;;17.30;3.65;;;;;;;;;;5089854;28;20136;-63
2022/01/29 14:26:37;;;;;;;22.02;3.47;;;;;;;;;;5071778;28;20039;-63
2022/01/29 14:29:03;;;;;;;22.15;4.18;;;;;;;;;;5089207;28;20131;-63
2022/01/29 14:31:29;;;;;;;22.58;3.63;;;;;;;;;;5064273;28;20460;-63
2022/01/29 14:33:56;;;;;;;23.98;3.72;;;;;;;;;;5088056;28;20137;-63
2022/01/29 14:36:22;;;;;;;19.80;4.85;;;;;;;;;;5081409;28;20487;-63
2022/01/29 14:38:48;;;;;;;23.17;3.67;;;;;;;;;;5064285;28;20487;-62